sensor_id;sensor_type;location;lat;lon;timestamp;P1;durP1;ratioP1;P2;durP2;ratioP2
40967;SDS011;57377;45.130;6.038;2023-03-01T00:01:21;46.63;;;23.33;;
40967;SDS011;57377;45.130;6.038;2023-03-01T00:03:48;44.03;;;22.88;;
40967;SDS011;57377;45.130;6.038;2023-03-01T00:06:13;44.47;;;21.80;;
40967;SDS011;57377;45.130;6.038;2023-03-01T00:08:39;50.15;;;23.95;;
40967;SDS011;57377;45.130;6.038;2023-03-01T00:11:22;46.38;;;23.92;;
40967;SDS011;57377;45.130;6.038;2023-03-01T00:13:50;49.53;;;23.30;;
40967;SDS011;57377;45.130;6.038;2023-03-01T00:16:19;49.83;;;23.60;;
40967;SDS011;57377;45.130;6.038;2023-03-01T00:18:46;46.17;;;22.38;;
40967;SDS011;57377;45.130;6.038;2023-03-01T00:21:12;49.15;;;25.10;;
40967;SDS011;57377;45.130;6.038;2023-03-01T00:23:37;52.97;;;26.23;;
40967;SDS011;57377;45.130;6.038;2023-03-01T00:26:07;46.15;;;23.02;;
40967;SDS011;57377;45.130;6.038;2023-03-01T00:28:35;48.72;;;23.55;;
40967;SDS011;57377;45.130;6.038;2023-03-01T00:31:20;47.35;;;22.77;;
40967;SDS011;57377;45.130;6.038;2023-03-01T00:33:48;46.80;;;23.25;;
40967;SDS011;57377;45.130;6.038;2023-03-01T00:36:14;43.45;;;22.23;;
40967;SDS011;57377;45.130;6.038;2023-03-01T00:38:41;45.67;;;21.83;;
40967;SDS011;57377;45.130;6.038;2023-03-01T00:41:09;45.35;;;23.58;;
40967;SDS011;57377;45.130;6.038;2023-03-01T00:43:36;42.80;;;22.13;;
40967;SDS011;57377;45.130;6.038;2023-03-01T00:46:07;44.05;;;20.77;;
40967;SDS011;57377;45.130;6.038;2023-03-01T00:48:35;45.53;;;22.92;;
40967;SDS011;57377;45.130;6.038;2023-03-01T00:53:32;46.25;;;23.17;;
40967;SDS011;57377;45.130;6.038;2023-03-01T00:55:58;46.38;;;22.67;;
40967;SDS011;57377;45.130;6.038;2023-03-01T00:58:24;44.25;;;21.73;;
40967;SDS011;57377;45.130;6.038;2023-03-01T01:00:49;40.78;;;21.77;;
40967;SDS011;57377;45.130;6.038;2023-03-01T01:03:15;49.17;;;23.75;;
40967;SDS011;57377;45.130;6.038;2023-03-01T01:05:40;43.85;;;22.65;;
40967;SDS011;57377;45.130;6.038;2023-03-01T01:08:06;43.38;;;21.73;;
40967;SDS011;57377;45.130;6.038;2023-03-01T01:10:33;44.60;;;21.88;;
40967;SDS011;57377;45.130;6.038;2023-03-01T01:12:59;46.92;;;22.83;;
40967;SDS011;57377;45.130;6.038;2023-03-01T01:15:25;44.67;;;23.10;;
40967;SDS011;57377;45.130;6.038;2023-03-01T01:17:50;42.95;;;22.33;;
40967;SDS011;57377;45.130;6.038;2023-03-01T01:20:16;45.97;;;22.92;;
40967;SDS011;57377;45.130;6.038;2023-03-01T01:22:41;46.10;;;22.20;;
40967;SDS011;57377;45.130;6.038;2023-03-01T01:31:59;44.22;;;21.25;;
40967;SDS011;57377;45.130;6.038;2023-03-01T01:34:25;43.63;;;22.63;;
40967;SDS011;57377;45.130;6.038;2023-03-01T01:36:51;42.83;;;22.17;;
40967;SDS011;57377;45.130;6.038;2023-03-01T01:39:21;45.17;;;22.50;;
40967;SDS011;57377;45.130;6.038;2023-03-01T01:41:47;42.78;;;21.67;;
40967;SDS011;57377;45.130;6.038;2023-03-01T01:49:32;46.28;;;22.23;;
40967;SDS011;57377;45.130;6.038;2023-03-01T01:52:16;44.08;;;21.58;;
40967;SDS011;57377;45.130;6.038;2023-03-01T01:57:47;47.00;;;23.58;;
40967;SDS011;57377;45.130;6.038;2023-03-01T02:00:19;46.30;;;23.00;;
40967;SDS011;57377;45.130;6.038;2023-03-01T02:02:47;49.70;;;24.02;;
40967;SDS011;57377;45.130;6.038;2023-03-01T02:07:44;42.78;;;20.55;;
40967;SDS011;57377;45.130;6.038;2023-03-01T02:10:10;53.22;;;23.52;;
40967;SDS011;57377;45.130;6.038;2023-03-01T02:12:36;46.13;;;24.10;;
40967;SDS011;57377;45.130;6.038;2023-03-01T02:15:02;44.60;;;21.92;;
40967;SDS011;57377;45.130;6.038;2023-03-01T02:17:28;47.20;;;21.33;;
40967;SDS011;57377;45.130;6.038;2023-03-01T02:22:41;46.97;;;21.92;;
40967;SDS011;57377;45.130;6.038;2023-03-01T02:25:32;45.13;;;22.20;;
40967;SDS011;57377;45.130;6.038;2023-03-01T02:30:43;43.90;;;21.77;;
40967;SDS011;57377;45.130;6.038;2023-03-01T02:33:30;41.17;;;20.45;;
40967;SDS011;57377;45.130;6.038;2023-03-01T02:35:58;40.80;;;20.42;;
40967;SDS011;57377;45.130;6.038;2023-03-01T02:38:25;42.80;;;20.98;;
40967;SDS011;57377;45.130;6.038;2023-03-01T02:40:51;42.70;;;22.13;;
40967;SDS011;57377;45.130;6.038;2023-03-01T02:43:17;40.63;;;20.25;;
40967;SDS011;57377;45.130;6.038;2023-03-01T02:45:49;40.50;;;20.17;;
40967;SDS011;57377;45.130;6.038;2023-03-01T02:48:16;44.42;;;23.23;;
40967;SDS011;57377;45.130;6.038;2023-03-01T02:53:34;45.80;;;21.30;;
40967;SDS011;57377;45.130;6.038;2023-03-01T02:56:02;49.60;;;22.60;;
40967;SDS011;57377;45.130;6.038;2023-03-01T02:58:27;45.40;;;22.85;;
40967;SDS011;57377;45.130;6.038;2023-03-01T03:00:52;46.53;;;22.55;;
40967;SDS011;57377;45.130;6.038;2023-03-01T03:03:19;43.53;;;21.65;;
40967;SDS011;57377;45.130;6.038;2023-03-01T03:05:46;44.55;;;23.10;;
40967;SDS011;57377;45.130;6.038;2023-03-01T03:08:12;43.08;;;21.13;;
40967;SDS011;57377;45.130;6.038;2023-03-01T03:10:40;44.17;;;22.37;;
40967;SDS011;57377;45.130;6.038;2023-03-01T03:13:12;44.30;;;21.42;;
40967;SDS011;57377;45.130;6.038;2023-03-01T03:15:38;47.70;;;22.90;;
40967;SDS011;57377;45.130;6.038;2023-03-01T03:18:07;41.80;;;21.65;;
40967;SDS011;57377;45.130;6.038;2023-03-01T03:20:34;45.85;;;22.65;;
40967;SDS011;57377;45.130;6.038;2023-03-01T03:23:01;48.95;;;22.60;;
40967;SDS011;57377;45.130;6.038;2023-03-01T03:25:27;43.92;;;21.35;;
40967;SDS011;57377;45.130;6.038;2023-03-01T03:27:54;39.72;;;21.83;;
40967;SDS011;57377;45.130;6.038;2023-03-01T03:30:21;42.72;;;21.17;;
40967;SDS011;57377;45.130;6.038;2023-03-01T03:32:48;47.17;;;23.00;;
40967;SDS011;57377;45.130;6.038;2023-03-01T03:35:20;42.55;;;21.27;;
40967;SDS011;57377;45.130;6.038;2023-03-01T03:37:47;42.35;;;21.42;;
40967;SDS011;57377;45.130;6.038;2023-03-01T03:41:02;44.20;;;22.25;;
40967;SDS011;57377;45.130;6.038;2023-03-01T03:43:31;40.60;;;20.05;;
40967;SDS011;57377;45.130;6.038;2023-03-01T03:45:58;50.38;;;22.35;;
40967;SDS011;57377;45.130;6.038;2023-03-01T03:48:23;35.83;;;18.60;;
40967;SDS011;57377;45.130;6.038;2023-03-01T03:50:50;44.53;;;21.40;;
40967;SDS011;57377;45.130;6.038;2023-03-01T03:53:18;50.03;;;22.95;;
40967;SDS011;57377;45.130;6.038;2023-03-01T03:55:45;43.35;;;20.83;;
40967;SDS011;57377;45.130;6.038;2023-03-01T03:58:14;37.58;;;20.40;;
40967;SDS011;57377;45.130;6.038;2023-03-01T04:00:42;44.85;;;21.67;;
40967;SDS011;57377;45.130;6.038;2023-03-01T04:05:35;41.90;;;19.73;;
40967;SDS011;57377;45.130;6.038;2023-03-01T04:08:01;49.30;;;21.45;;
40967;SDS011;57377;45.130;6.038;2023-03-01T04:10:31;43.15;;;21.27;;
40967;SDS011;57377;45.130;6.038;2023-03-01T04:12:57;47.78;;;21.77;;
40967;SDS011;57377;45.130;6.038;2023-03-01T04:15:23;45.45;;;23.42;;
40967;SDS011;57377;45.130;6.038;2023-03-01T04:20:19;43.55;;;21.05;;
40967;SDS011;57377;45.130;6.038;2023-03-01T04:22:50;44.67;;;21.95;;
40967;SDS011;57377;45.130;6.038;2023-03-01T04:25:22;43.00;;;22.05;;
40967;SDS011;57377;45.130;6.038;2023-03-01T04:27:48;48.35;;;21.48;;
40967;SDS011;57377;45.130;6.038;2023-03-01T04:30:13;44.60;;;22.98;;
40967;SDS011;57377;45.130;6.038;2023-03-01T04:32:39;43.38;;;20.02;;
40967;SDS011;57377;45.130;6.038;2023-03-01T04:35:04;42.10;;;22.02;;
40967;SDS011;57377;45.130;6.038;2023-03-01T04:37:30;45.03;;;20.58;;
40967;SDS011;57377;45.130;6.038;2023-03-01T04:39:56;43.90;;;20.38;;
40967;SDS011;57377;45.130;6.038;2023-03-01T04:42:21;39.10;;;20.70;;
40967;SDS011;57377;45.130;6.038;2023-03-01T04:44:46;41.92;;;20.25;;
40967;SDS011;57377;45.130;6.038;2023-03-01T04:47:12;45.88;;;22.42;;
40967;SDS011;57377;45.130;6.038;2023-03-01T04:49:37;45.13;;;21.15;;
40967;SDS011;57377;45.130;6.038;2023-03-01T04:52:03;41.90;;;21.75;;
40967;SDS011;57377;45.130;6.038;2023-03-01T04:54:30;40.95;;;21.33;;
40967;SDS011;57377;45.130;6.038;2023-03-01T04:59:22;42.38;;;20.73;;
40967;SDS011;57377;45.130;6.038;2023-03-01T05:01:48;42.97;;;20.90;;
40967;SDS011;57377;45.130;6.038;2023-03-01T05:04:14;45.70;;;20.45;;
40967;SDS011;57377;45.130;6.038;2023-03-01T05:06:40;42.00;;;20.17;;
40967;SDS011;57377;45.130;6.038;2023-03-01T05:09:05;43.15;;;21.33;;
40967;SDS011;57377;45.130;6.038;2023-03-01T05:11:31;38.13;;;20.90;;
40967;SDS011;57377;45.130;6.038;2023-03-01T05:14:00;40.95;;;22.15;;
40967;SDS011;57377;45.130;6.038;2023-03-01T05:16:27;44.08;;;21.65;;
40967;SDS011;57377;45.130;6.038;2023-03-01T05:18:52;43.80;;;21.10;;
40967;SDS011;57377;45.130;6.038;2023-03-01T05:21:20;45.58;;;22.15;;
40967;SDS011;57377;45.130;6.038;2023-03-01T05:23:46;47.17;;;21.67;;
40967;SDS011;57377;45.130;6.038;2023-03-01T05:26:12;46.47;;;21.30;;
40967;SDS011;57377;45.130;6.038;2023-03-01T05:28:38;43.55;;;22.20;;
40967;SDS011;57377;45.130;6.038;2023-03-01T05:31:04;59.80;;;25.17;;
40967;SDS011;57377;45.130;6.038;2023-03-01T05:33:38;52.33;;;25.05;;
40967;SDS011;57377;45.130;6.038;2023-03-01T05:36:04;47.50;;;23.63;;
40967;SDS011;57377;45.130;6.038;2023-03-01T05:38:31;45.20;;;23.13;;
40967;SDS011;57377;45.130;6.038;2023-03-01T05:40:56;51.78;;;23.13;;
40967;SDS011;57377;45.130;6.038;2023-03-01T05:43:22;44.20;;;22.33;;
40967;SDS011;57377;45.130;6.038;2023-03-01T05:45:47;46.58;;;22.50;;
40967;SDS011;57377;45.130;6.038;2023-03-01T05:48:13;46.03;;;23.23;;
40967;SDS011;57377;45.130;6.038;2023-03-01T05:50:42;40.72;;;22.45;;
40967;SDS011;57377;45.130;6.038;2023-03-01T05:53:10;44.50;;;22.50;;
40967;SDS011;57377;45.130;6.038;2023-03-01T05:55:41;45.90;;;23.15;;
40967;SDS011;57377;45.130;6.038;2023-03-01T05:58:09;47.88;;;24.13;;
40967;SDS011;57377;45.130;6.038;2023-03-01T06:00:39;50.58;;;22.80;;
40967;SDS011;57377;45.130;6.038;2023-03-01T06:03:04;45.10;;;23.33;;
40967;SDS011;57377;45.130;6.038;2023-03-01T06:05:30;47.38;;;22.95;;
40967;SDS011;57377;45.130;6.038;2023-03-01T06:07:58;48.72;;;22.83;;
40967;SDS011;57377;45.130;6.038;2023-03-01T06:10:24;46.00;;;23.33;;
40967;SDS011;57377;45.130;6.038;2023-03-01T06:12:50;43.55;;;22.83;;
40967;SDS011;57377;45.130;6.038;2023-03-01T06:15:15;45.47;;;24.13;;
40967;SDS011;57377;45.130;6.038;2023-03-01T06:17:42;44.03;;;22.35;;
40967;SDS011;57377;45.130;6.038;2023-03-01T06:20:17;48.85;;;23.35;;
40967;SDS011;57377;45.130;6.038;2023-03-01T06:22:46;43.67;;;22.17;;
40967;SDS011;57377;45.130;6.038;2023-03-01T06:25:13;48.67;;;22.47;;
40967;SDS011;57377;45.130;6.038;2023-03-01T06:27:41;47.97;;;21.95;;
40967;SDS011;57377;45.130;6.038;2023-03-01T06:30:08;42.28;;;22.15;;
40967;SDS011;57377;45.130;6.038;2023-03-01T06:32:35;45.88;;;22.23;;
40967;SDS011;57377;45.130;6.038;2023-03-01T06:35:02;48.90;;;22.75;;
40967;SDS011;57377;45.130;6.038;2023-03-01T06:37:28;44.08;;;22.80;;
40967;SDS011;57377;45.130;6.038;2023-03-01T06:39:53;53.08;;;22.67;;
40967;SDS011;57377;45.130;6.038;2023-03-01T06:42:19;47.47;;;23.05;;
40967;SDS011;57377;45.130;6.038;2023-03-01T06:44:44;47.15;;;23.70;;
40967;SDS011;57377;45.130;6.038;2023-03-01T06:47:10;46.78;;;23.05;;
40967;SDS011;57377;45.130;6.038;2023-03-01T06:49:36;51.38;;;24.10;;
40967;SDS011;57377;45.130;6.038;2023-03-01T06:52:01;53.65;;;24.85;;
40967;SDS011;57377;45.130;6.038;2023-03-01T06:54:28;46.83;;;23.45;;
40967;SDS011;57377;45.130;6.038;2023-03-01T06:56:53;50.05;;;23.10;;
40967;SDS011;57377;45.130;6.038;2023-03-01T06:59:19;50.78;;;22.98;;
40967;SDS011;57377;45.130;6.038;2023-03-01T07:01:44;48.15;;;23.52;;
40967;SDS011;57377;45.130;6.038;2023-03-01T07:04:10;47.47;;;23.23;;
40967;SDS011;57377;45.130;6.038;2023-03-01T07:06:36;48.92;;;24.10;;
40967;SDS011;57377;45.130;6.038;2023-03-01T07:09:01;48.97;;;23.13;;
40967;SDS011;57377;45.130;6.038;2023-03-01T07:11:27;51.70;;;23.38;;
40967;SDS011;57377;45.130;6.038;2023-03-01T07:13:52;41.42;;;21.05;;
40967;SDS011;57377;45.130;6.038;2023-03-01T07:16:18;46.33;;;21.80;;
40967;SDS011;57377;45.130;6.038;2023-03-01T07:18:45;53.88;;;23.88;;
40967;SDS011;57377;45.130;6.038;2023-03-01T07:21:11;47.38;;;24.38;;
40967;SDS011;57377;45.130;6.038;2023-03-01T07:23:38;53.88;;;25.33;;
40967;SDS011;57377;45.130;6.038;2023-03-01T07:26:03;47.45;;;24.88;;
40967;SDS011;57377;45.130;6.038;2023-03-01T07:28:29;52.10;;;25.00;;
40967;SDS011;57377;45.130;6.038;2023-03-01T07:30:59;46.58;;;23.88;;
40967;SDS011;57377;45.130;6.038;2023-03-01T07:33:25;46.88;;;23.58;;
40967;SDS011;57377;45.130;6.038;2023-03-01T07:35:55;48.10;;;22.75;;
40967;SDS011;57377;45.130;6.038;2023-03-01T07:38:21;50.15;;;26.20;;
40967;SDS011;57377;45.130;6.038;2023-03-01T07:40:47;54.03;;;24.92;;
40967;SDS011;57377;45.130;6.038;2023-03-01T07:43:12;51.70;;;25.17;;
40967;SDS011;57377;45.130;6.038;2023-03-01T07:45:37;49.40;;;24.60;;
40967;SDS011;57377;45.130;6.038;2023-03-01T07:48:03;50.15;;;25.42;;
40967;SDS011;57377;45.130;6.038;2023-03-01T07:50:28;46.58;;;23.75;;
40967;SDS011;57377;45.130;6.038;2023-03-01T07:52:54;58.85;;;27.85;;
40967;SDS011;57377;45.130;6.038;2023-03-01T07:55:19;57.22;;;26.13;;
40967;SDS011;57377;45.130;6.038;2023-03-01T07:57:45;50.35;;;24.52;;
40967;SDS011;57377;45.130;6.038;2023-03-01T08:00:11;56.22;;;26.25;;
40967;SDS011;57377;45.130;6.038;2023-03-01T08:02:37;60.40;;;28.70;;
40967;SDS011;57377;45.130;6.038;2023-03-01T08:05:03;54.63;;;27.02;;
40967;SDS011;57377;45.130;6.038;2023-03-01T08:07:28;49.80;;;25.35;;
40967;SDS011;57377;45.130;6.038;2023-03-01T08:09:54;52.38;;;26.70;;
40967;SDS011;57377;45.130;6.038;2023-03-01T08:12:19;49.42;;;25.10;;
40967;SDS011;57377;45.130;6.038;2023-03-01T08:14:45;52.55;;;26.35;;
40967;SDS011;57377;45.130;6.038;2023-03-01T08:17:10;59.40;;;26.35;;
40967;SDS011;57377;45.130;6.038;2023-03-01T08:19:38;53.22;;;26.65;;
40967;SDS011;57377;45.130;6.038;2023-03-01T08:22:03;58.30;;;25.95;;
40967;SDS011;57377;45.130;6.038;2023-03-01T08:24:29;53.08;;;26.95;;
40967;SDS011;57377;45.130;6.038;2023-03-01T08:26:54;51.35;;;25.75;;
40967;SDS011;57377;45.130;6.038;2023-03-01T08:29:20;55.35;;;26.58;;
40967;SDS011;57377;45.130;6.038;2023-03-01T08:31:46;56.22;;;26.17;;
40967;SDS011;57377;45.130;6.038;2023-03-01T08:34:13;57.90;;;28.33;;
40967;SDS011;57377;45.130;6.038;2023-03-01T08:36:41;54.13;;;25.77;;
40967;SDS011;57377;45.130;6.038;2023-03-01T08:39:09;56.78;;;27.00;;
40967;SDS011;57377;45.130;6.038;2023-03-01T08:41:36;53.65;;;23.75;;
40967;SDS011;57377;45.130;6.038;2023-03-01T08:44:02;50.60;;;24.52;;
40967;SDS011;57377;45.130;6.038;2023-03-01T08:46:28;54.47;;;26.58;;
40967;SDS011;57377;45.130;6.038;2023-03-01T08:48:59;49.03;;;25.33;;
40967;SDS011;57377;45.130;6.038;2023-03-01T08:51:24;50.22;;;25.67;;
40967;SDS011;57377;45.130;6.038;2023-03-01T08:53:51;53.65;;;27.73;;
40967;SDS011;57377;45.130;6.038;2023-03-01T08:56:17;44.33;;;22.90;;
40967;SDS011;57377;45.130;6.038;2023-03-01T08:58:44;45.05;;;23.10;;
40967;SDS011;57377;45.130;6.038;2023-03-01T09:01:15;44.28;;;22.83;;
40967;SDS011;57377;45.130;6.038;2023-03-01T09:03:42;51.83;;;23.85;;
40967;SDS011;57377;45.130;6.038;2023-03-01T09:06:08;48.95;;;22.65;;
40967;SDS011;57377;45.130;6.038;2023-03-01T09:08:34;48.25;;;22.92;;
40967;SDS011;57377;45.130;6.038;2023-03-01T09:11:05;47.42;;;22.67;;
40967;SDS011;57377;45.130;6.038;2023-03-01T09:13:32;46.58;;;22.75;;
40967;SDS011;57377;45.130;6.038;2023-03-01T09:15:59;49.37;;;23.13;;
40967;SDS011;57377;45.130;6.038;2023-03-01T09:18:26;53.63;;;22.80;;
40967;SDS011;57377;45.130;6.038;2023-03-01T09:20:51;45.85;;;22.70;;
40967;SDS011;57377;45.130;6.038;2023-03-01T09:23:19;47.03;;;23.88;;
40967;SDS011;57377;45.130;6.038;2023-03-01T09:25:45;47.15;;;22.25;;
40967;SDS011;57377;45.130;6.038;2023-03-01T09:28:10;46.72;;;23.05;;
40967;SDS011;57377;45.130;6.038;2023-03-01T09:30:36;51.47;;;23.50;;
40967;SDS011;57377;45.130;6.038;2023-03-01T09:33:01;50.40;;;24.27;;
40967;SDS011;57377;45.130;6.038;2023-03-01T09:35:27;47.72;;;24.98;;
40967;SDS011;57377;45.130;6.038;2023-03-01T09:37:53;45.35;;;22.58;;
40967;SDS011;57377;45.130;6.038;2023-03-01T09:40:19;50.83;;;23.90;;
40967;SDS011;57377;45.130;6.038;2023-03-01T09:43:01;46.92;;;23.38;;
40967;SDS011;57377;45.130;6.038;2023-03-01T09:45:40;51.75;;;22.73;;
40967;SDS011;57377;45.130;6.038;2023-03-01T09:48:16;53.75;;;24.20;;
40967;SDS011;57377;45.130;6.038;2023-03-01T09:53:13;50.25;;;24.67;;
40967;SDS011;57377;45.130;6.038;2023-03-01T09:56:00;54.08;;;25.15;;
40967;SDS011;57377;45.130;6.038;2023-03-01T10:01:14;54.55;;;27.50;;
40967;SDS011;57377;45.130;6.038;2023-03-01T10:03:54;47.95;;;23.27;;
40967;SDS011;57377;45.130;6.038;2023-03-01T10:06:22;50.15;;;24.67;;
40967;SDS011;57377;45.130;6.038;2023-03-01T10:11:21;60.13;;;27.80;;
40967;SDS011;57377;45.130;6.038;2023-03-01T10:13:51;54.80;;;27.80;;
40967;SDS011;57377;45.130;6.038;2023-03-01T10:19:23;55.95;;;26.75;;
40967;SDS011;57377;45.130;6.038;2023-03-01T10:21:53;52.97;;;27.70;;
40967;SDS011;57377;45.130;6.038;2023-03-01T10:24:19;51.50;;;25.80;;
40967;SDS011;57377;45.130;6.038;2023-03-01T10:26:56;52.67;;;25.63;;
40967;SDS011;57377;45.130;6.038;2023-03-01T10:29:25;52.50;;;25.08;;
40967;SDS011;57377;45.130;6.038;2023-03-01T10:32:02;58.17;;;26.00;;
40967;SDS011;57377;45.130;6.038;2023-03-01T10:34:32;51.78;;;25.42;;
40967;SDS011;57377;45.130;6.038;2023-03-01T10:37:19;48.17;;;23.67;;
40967;SDS011;57377;45.130;6.038;2023-03-01T10:42:31;47.38;;;24.92;;
40967;SDS011;57377;45.130;6.038;2023-03-01T10:44:58;44.30;;;24.13;;
40967;SDS011;57377;45.130;6.038;2023-03-01T10:47:41;48.38;;;25.20;;
40967;SDS011;57377;45.130;6.038;2023-03-01T10:50:17;50.97;;;24.52;;
40967;SDS011;57377;45.130;6.038;2023-03-01T10:53:00;51.20;;;25.35;;
40967;SDS011;57377;45.130;6.038;2023-03-01T10:55:30;46.58;;;23.67;;
40967;SDS011;57377;45.130;6.038;2023-03-01T11:00:58;44.50;;;22.13;;
40967;SDS011;57377;45.130;6.038;2023-03-01T11:04:03;45.42;;;23.17;;
40967;SDS011;57377;45.130;6.038;2023-03-01T11:06:28;41.72;;;22.67;;
40967;SDS011;57377;45.130;6.038;2023-03-01T11:08:54;46.40;;;24.70;;
40967;SDS011;57377;45.130;6.038;2023-03-01T11:14:03;42.72;;;23.20;;
40967;SDS011;57377;45.130;6.038;2023-03-01T11:16:35;47.55;;;23.77;;
40967;SDS011;57377;45.130;6.038;2023-03-01T11:21:39;43.28;;;23.48;;
40967;SDS011;57377;45.130;6.038;2023-03-01T11:24:08;44.50;;;24.38;;
40967;SDS011;57377;45.130;6.038;2023-03-01T11:26:37;44.85;;;24.40;;
40967;SDS011;57377;45.130;6.038;2023-03-01T11:29:06;45.80;;;22.33;;
40967;SDS011;57377;45.130;6.038;2023-03-01T11:31:38;47.15;;;23.80;;
40967;SDS011;57377;45.130;6.038;2023-03-01T11:36:43;43.38;;;22.20;;
40967;SDS011;57377;45.130;6.038;2023-03-01T11:41:38;40.97;;;22.08;;
40967;SDS011;57377;45.130;6.038;2023-03-01T11:44:10;43.17;;;23.00;;
40967;SDS011;57377;45.130;6.038;2023-03-01T11:57:55;46.00;;;22.17;;
40967;SDS011;57377;45.130;6.038;2023-03-01T12:11:26;43.05;;;23.00;;
40967;SDS011;57377;45.130;6.038;2023-03-01T12:14:13;45.13;;;23.70;;
40967;SDS011;57377;45.130;6.038;2023-03-01T12:24:56;48.03;;;24.35;;
40967;SDS011;57377;45.130;6.038;2023-03-01T12:35:06;49.97;;;25.75;;
40967;SDS011;57377;45.130;6.038;2023-03-01T12:40:32;50.13;;;23.67;;
40967;SDS011;57377;45.130;6.038;2023-03-01T12:44:11;53.28;;;23.52;;
40967;SDS011;57377;45.130;6.038;2023-03-01T12:49:42;43.28;;;23.02;;
40967;SDS011;57377;45.130;6.038;2023-03-01T12:51:54;46.85;;;23.60;;
40967;SDS011;57377;45.130;6.038;2023-03-01T12:54:26;46.25;;;23.33;;
40967;SDS011;57377;45.130;6.038;2023-03-01T12:56:55;45.63;;;25.17;;
40967;SDS011;57377;45.130;6.038;2023-03-01T12:59:35;44.00;;;25.50;;
40967;SDS011;57377;45.130;6.038;2023-03-01T13:09:58;47.10;;;24.67;;
40967;SDS011;57377;45.130;6.038;2023-03-01T13:12:43;47.35;;;24.50;;
40967;SDS011;57377;45.130;6.038;2023-03-01T13:18:00;54.42;;;25.33;;
40967;SDS011;57377;45.130;6.038;2023-03-01T13:36:10;48.00;;;26.15;;
40967;SDS011;57377;45.130;6.038;2023-03-01T13:39:02;55.63;;;25.30;;
40967;SDS011;57377;45.130;6.038;2023-03-01T13:46:43;47.92;;;26.52;;
40967;SDS011;57377;45.130;6.038;2023-03-01T13:49:11;51.47;;;25.23;;
40967;SDS011;57377;45.130;6.038;2023-03-01T13:51:41;47.17;;;25.42;;
40967;SDS011;57377;45.130;6.038;2023-03-01T13:54:10;51.47;;;26.60;;
40967;SDS011;57377;45.130;6.038;2023-03-01T13:56:37;53.17;;;27.88;;
40967;SDS011;57377;45.130;6.038;2023-03-01T13:59:12;51.10;;;26.83;;
40967;SDS011;57377;45.130;6.038;2023-03-01T14:01:37;64.90;;;27.63;;
40967;SDS011;57377;45.130;6.038;2023-03-01T14:04:03;51.75;;;26.23;;
40967;SDS011;57377;45.130;6.038;2023-03-01T14:06:46;53.42;;;26.30;;
40967;SDS011;57377;45.130;6.038;2023-03-01T14:09:18;50.60;;;26.63;;
40967;SDS011;57377;45.130;6.038;2023-03-01T14:12:01;48.92;;;25.50;;
40967;SDS011;57377;45.130;6.038;2023-03-01T14:20:14;49.55;;;25.88;;
40967;SDS011;57377;45.130;6.038;2023-03-01T14:22:44;51.70;;;25.88;;
40967;SDS011;57377;45.130;6.038;2023-03-01T14:28:32;53.05;;;26.13;;
40967;SDS011;57377;45.130;6.038;2023-03-01T14:30:42;50.67;;;27.13;;
40967;SDS011;57377;45.130;6.038;2023-03-01T14:35:55;54.50;;;26.63;;
40967;SDS011;57377;45.130;6.038;2023-03-01T14:38:31;57.50;;;26.88;;
40967;SDS011;57377;45.130;6.038;2023-03-01T14:41:03;60.65;;;26.20;;
40967;SDS011;57377;45.130;6.038;2023-03-01T14:43:31;49.20;;;25.92;;
40967;SDS011;57377;45.130;6.038;2023-03-01T14:45:57;53.63;;;26.55;;
40967;SDS011;57377;45.130;6.038;2023-03-01T14:48:22;53.03;;;26.52;;
40967;SDS011;57377;45.130;6.038;2023-03-01T14:50:48;55.08;;;26.50;;
40967;SDS011;57377;45.130;6.038;2023-03-01T14:53:23;55.03;;;25.88;;
40967;SDS011;57377;45.130;6.038;2023-03-01T14:55:52;54.22;;;26.85;;
40967;SDS011;57377;45.130;6.038;2023-03-01T14:58:21;50.30;;;26.30;;
40967;SDS011;57377;45.130;6.038;2023-03-01T15:00:55;50.05;;;26.95;;
40967;SDS011;57377;45.130;6.038;2023-03-01T15:03:36;48.55;;;26.58;;
40967;SDS011;57377;45.130;6.038;2023-03-01T15:06:06;52.22;;;25.52;;
40967;SDS011;57377;45.130;6.038;2023-03-01T15:08:33;61.50;;;27.58;;
40967;SDS011;57377;45.130;6.038;2023-03-01T15:11:03;48.90;;;25.80;;
40967;SDS011;57377;45.130;6.038;2023-03-01T15:13:51;51.35;;;27.00;;
40967;SDS011;57377;45.130;6.038;2023-03-01T15:16:18;50.72;;;25.52;;
40967;SDS011;57377;45.130;6.038;2023-03-01T15:18:55;61.70;;;27.73;;
40967;SDS011;57377;45.130;6.038;2023-03-01T15:21:24;61.65;;;27.35;;
40967;SDS011;57377;45.130;6.038;2023-03-01T15:23:55;50.70;;;26.05;;
40967;SDS011;57377;45.130;6.038;2023-03-01T15:26:28;59.28;;;27.33;;
40967;SDS011;57377;45.130;6.038;2023-03-01T15:28:57;53.60;;;26.08;;
40967;SDS011;57377;45.130;6.038;2023-03-01T15:31:25;50.17;;;25.67;;
40967;SDS011;57377;45.130;6.038;2023-03-01T15:33:52;52.60;;;26.92;;
40967;SDS011;57377;45.130;6.038;2023-03-01T15:39:02;52.90;;;27.55;;
40967;SDS011;57377;45.130;6.038;2023-03-01T15:41:32;53.03;;;26.67;;
40967;SDS011;57377;45.130;6.038;2023-03-01T15:46:54;60.75;;;26.88;;
40967;SDS011;57377;45.130;6.038;2023-03-01T15:49:37;52.45;;;27.50;;
40967;SDS011;57377;45.130;6.038;2023-03-01T15:52:05;56.50;;;27.58;;
40967;SDS011;57377;45.130;6.038;2023-03-01T15:54:36;54.85;;;28.10;;
40967;SDS011;57377;45.130;6.038;2023-03-01T15:57:05;55.20;;;27.00;;
40967;SDS011;57377;45.130;6.038;2023-03-01T15:59:35;56.15;;;28.67;;
40967;SDS011;57377;45.130;6.038;2023-03-01T16:02:00;51.83;;;27.55;;
40967;SDS011;57377;45.130;6.038;2023-03-01T16:04:25;53.88;;;26.58;;
40967;SDS011;57377;45.130;6.038;2023-03-01T16:06:51;53.13;;;27.00;;
40967;SDS011;57377;45.130;6.038;2023-03-01T16:09:21;51.10;;;26.40;;
40967;SDS011;57377;45.130;6.038;2023-03-01T16:11:48;57.22;;;27.58;;
40967;SDS011;57377;45.130;6.038;2023-03-01T16:14:13;52.78;;;27.67;;
40967;SDS011;57377;45.130;6.038;2023-03-01T16:16:39;52.05;;;27.30;;
40967;SDS011;57377;45.130;6.038;2023-03-01T16:19:05;56.90;;;26.50;;
40967;SDS011;57377;45.130;6.038;2023-03-01T16:21:30;56.13;;;27.50;;
40967;SDS011;57377;45.130;6.038;2023-03-01T16:23:56;57.67;;;26.08;;
40967;SDS011;57377;45.130;6.038;2023-03-01T16:26:22;55.03;;;27.13;;
40967;SDS011;57377;45.130;6.038;2023-03-01T16:28:48;56.08;;;27.65;;
40967;SDS011;57377;45.130;6.038;2023-03-01T16:31:16;59.13;;;28.27;;
40967;SDS011;57377;45.130;6.038;2023-03-01T16:33:43;57.97;;;27.50;;
40967;SDS011;57377;45.130;6.038;2023-03-01T16:36:14;57.63;;;28.23;;
40967;SDS011;57377;45.130;6.038;2023-03-01T16:38:40;59.60;;;27.65;;
40967;SDS011;57377;45.130;6.038;2023-03-01T16:41:05;56.13;;;27.67;;
40967;SDS011;57377;45.130;6.038;2023-03-01T16:43:36;59.72;;;26.63;;
40967;SDS011;57377;45.130;6.038;2023-03-01T16:46:04;58.15;;;28.20;;
40967;SDS011;57377;45.130;6.038;2023-03-01T16:48:35;59.72;;;27.23;;
40967;SDS011;57377;45.130;6.038;2023-03-01T16:51:01;58.40;;;27.60;;
40967;SDS011;57377;45.130;6.038;2023-03-01T16:53:27;58.05;;;27.42;;
40967;SDS011;57377;45.130;6.038;2023-03-01T16:55:54;54.93;;;26.40;;
40967;SDS011;57377;45.130;6.038;2023-03-01T16:58:21;60.25;;;29.52;;
40967;SDS011;57377;45.130;6.038;2023-03-01T17:00:49;65.47;;;28.67;;
40967;SDS011;57377;45.130;6.038;2023-03-01T17:03:16;65.43;;;30.73;;
40967;SDS011;57377;45.130;6.038;2023-03-01T17:05:42;65.22;;;29.15;;